Time;durP1;ratioP1;P1;durP2;ratioP2;P2;SDS_P1;SDS_P2;PMS_P1;PMS_P2;Temp;Humidity;BMP_temperature;BMP_pressure;BME280_temperature;BME280_humidity;BME280_pressure;Samples;Min_cycle;Max_cycle;Signal;HPM_P1;HPM_P2
2022/08/15 00:00:45;;;;;;;10.20;9.10;;;24.50;99.90;;;;;;4979170;28;20459;-71
2022/08/15 00:03:47;;;;;;;13.45;9.70;;;24.50;99.90;;;;;;4978961;28;20041;-71
2022/08/15 00:06:21;;;;;;;12.82;9.20;;;24.40;99.90;;;;;;4977685;28;20045;-71
2022/08/15 00:08:59;;;;;;;12.85;9.45;;;24.30;99.90;;;;;;4978653;28;20078;-72
2022/08/15 00:11:31;;;;;;;13.98;10.15;;;24.30;99.90;;;;;;4977735;28;20129;-71
2022/08/15 00:14:07;;;;;;;11.48;9.63;;;24.30;99.90;;;;;;4978533;28;20445;-71
2022/08/15 00:16:36;;;;;;;11.38;9.02;;;24.30;99.90;;;;;;4978394;28;20429;-72
2022/08/15 00:19:18;;;;;;;12.00;9.82;;;24.30;99.90;;;;;;4978297;28;20097;-71
2022/08/15 00:21:47;;;;;;;12.20;9.57;;;24.20;99.90;;;;;;4977664;28;20054;-71
2022/08/15 00:24:18;;;;;;;13.98;9.77;;;24.20;99.90;;;;;;4978545;28;20085;-71
2022/08/15 00:26:48;;;;;;;12.63;9.70;;;24.10;99.90;;;;;;4978182;28;20062;-71
2022/08/15 00:29:15;;;;;;;11.45;9.65;;;24.20;99.90;;;;;;4978441;28;20043;-71
2022/08/15 00:31:41;;;;;;;12.60;9.05;;;24.10;99.90;;;;;;4978114;28;20047;-71
2022/08/15 00:34:09;;;;;;;12.85;9.90;;;24.10;99.90;;;;;;4977263;28;20047;-71
2022/08/15 00:36:35;;;;;;;12.35;9.27;;;24.00;99.90;;;;;;4978203;28;20385;-71
2022/08/15 00:39:01;;;;;;;13.43;9.82;;;23.90;99.90;;;;;;4977305;28;20038;-72
2022/08/15 00:41:41;;;;;;;11.95;9.57;;;23.90;99.90;;;;;;4977588;28;20429;-71
2022/08/15 00:44:23;;;;;;;12.15;9.80;;;23.90;99.90;;;;;;4977209;28;20039;-71
2022/08/15 00:46:54;;;;;;;14.15;9.02;;;23.90;99.90;;;;;;4977941;28;20042;-71
2022/08/15 00:49:21;;;;;;;12.90;9.80;;;24.00;99.90;;;;;;4978165;28;20126;-71
2022/08/15 00:51:50;;;;;;;14.32;10.30;;;24.00;99.90;;;;;;4978154;28;20066;-71
2022/08/15 00:54:39;;;;;;;11.40;9.57;;;24.00;99.90;;;;;;4977890;28;20076;-72
2022/08/15 00:57:07;;;;;;;14.70;10.07;;;24.00;99.90;;;;;;4977932;28;20341;-71
2022/08/15 00:59:37;;;;;;;15.85;10.25;;;23.90;99.90;;;;;;4977858;28;20429;-71
2022/08/15 01:02:08;;;;;;;13.10;9.88;;;23.90;99.90;;;;;;4977905;28;20035;-71
2022/08/15 01:04:36;;;;;;;11.52;10.07;;;23.90;99.90;;;;;;4993289;28;20050;-71
2022/08/15 01:07:04;;;;;;;11.88;10.07;;;23.90;99.90;;;;;;4976635;28;20089;-71
2022/08/15 01:09:30;;;;;;;12.18;9.90;;;23.90;99.90;;;;;;4977903;28;20406;-71
2022/08/15 01:12:04;;;;;;;11.93;9.73;;;23.80;99.90;;;;;;4977032;28;20046;-71
2022/08/15 01:14:33;;;;;;;13.65;9.98;;;23.80;99.90;;;;;;4992044;28;20452;-71
2022/08/15 01:17:00;;;;;;;10.55;9.38;;;23.80;99.90;;;;;;4977247;28;20081;-71
2022/08/15 01:19:30;;;;;;;12.18;10.07;;;23.80;99.90;;;;;;4977694;28;20031;-72
2022/08/15 01:22:08;;;;;;;15.65;10.50;;;23.80;99.90;;;;;;4976632;28;20111;-71
2022/08/15 01:24:38;;;;;;;13.63;10.93;;;23.80;99.90;;;;;;4977632;28;20134;-71
2022/08/15 01:27:04;;;;;;;15.15;10.20;;;23.80;99.90;;;;;;4977293;28;20134;-71
2022/08/15 01:29:31;;;;;;;12.25;10.07;;;23.70;99.90;;;;;;4977481;28;20330;-71
2022/08/15 01:31:57;;;;;;;14.40;10.18;;;23.70;99.90;;;;;;4977543;28;20049;-71
2022/08/15 01:34:23;;;;;;;11.73;10.02;;;23.80;99.90;;;;;;4977700;28;20047;-71
2022/08/15 01:36:49;;;;;;;12.88;10.25;;;23.80;99.90;;;;;;4977427;28;20046;-72
2022/08/15 01:39:37;;;;;;;10.63;9.52;;;23.80;99.90;;;;;;4977722;28;20054;-71
2022/08/15 01:42:10;;;;;;;15.35;10.38;;;23.80;99.90;;;;;;4977450;28;20034;-71
2022/08/15 01:44:44;;;;;;;15.18;10.98;;;23.70;99.90;;;;;;4977374;28;20041;-71
2022/08/15 01:47:42;;;;;;;15.10;11.00;;;23.70;99.90;;;;;;4977197;28;20051;-71
2022/08/15 01:50:26;;;;;;;12.10;9.77;;;23.70;99.90;;;;;;4976250;28;20047;-71
2022/08/15 01:53:19;;;;;;;12.55;9.98;;;23.70;99.90;;;;;;4978536;28;20053;-71
2022/08/15 01:55:59;;;;;;;12.00;10.40;;;23.70;99.90;;;;;;4996528;28;20075;-71
2022/08/15 01:58:26;;;;;;;11.88;10.68;;;23.70;99.90;;;;;;4981284;28;20082;-71
2022/08/15 02:01:13;;;;;;;14.32;10.88;;;23.60;99.90;;;;;;4981402;28;20321;-71
2022/08/15 02:03:41;;;;;;;15.38;11.13;;;23.60;99.90;;;;;;4981061;28;20081;-71
2022/08/15 02:06:14;;;;;;;15.52;11.25;;;23.70;99.90;;;;;;4981082;28;20069;-71
2022/08/15 02:08:43;;;;;;;16.00;12.90;;;23.70;99.90;;;;;;4981242;28;20042;-71
2022/08/15 02:11:16;;;;;;;14.63;11.60;;;23.70;99.90;;;;;;4995879;28;20046;-71
2022/08/15 02:13:43;;;;;;;14.95;11.30;;;23.80;99.90;;;;;;4979839;28;20097;-71
2022/08/15 02:16:10;;;;;;;14.82;11.43;;;23.80;99.90;;;;;;4979744;28;20038;-71
2022/08/15 02:18:36;;;;;;;15.50;11.77;;;23.90;99.90;;;;;;4980550;28;20042;-71
2022/08/15 02:21:02;;;;;;;13.75;10.45;;;23.90;99.90;;;;;;4980724;28;20433;-71
2022/08/15 02:23:28;;;;;;;13.55;10.75;;;23.90;99.90;;;;;;4979533;28;20125;-71
2022/08/15 02:25:54;;;;;;;15.52;11.77;;;23.90;99.90;;;;;;4980485;28;20070;-71
2022/08/15 02:28:22;;;;;;;15.30;10.50;;;23.90;99.90;;;;;;4980500;28;20337;-72
2022/08/15 02:30:48;;;;;;;14.05;12.13;;;24.00;99.90;;;;;;4980787;28;20035;-72
2022/08/15 02:33:14;;;;;;;15.65;11.73;;;23.90;99.90;;;;;;4980593;28;20054;-71
2022/08/15 02:35:39;;;;;;;14.73;11.40;;;23.90;99.90;;;;;;4980512;28;20042;-71
2022/08/15 02:38:06;;;;;;;15.77;12.05;;;24.00;99.90;;;;;;4980775;28;20039;-71
2022/08/15 02:40:33;;;;;;;13.70;11.88;;;24.00;99.90;;;;;;4980549;28;20039;-72
2022/08/15 02:43:08;;;;;;;13.68;11.35;;;24.10;99.90;;;;;;4980156;28;20046;-71
2022/08/15 02:45:37;;;;;;;13.77;11.45;;;24.10;99.90;;;;;;4980591;28;20034;-71
2022/08/15 02:48:05;;;;;;;15.20;11.90;;;24.10;99.90;;;;;;4979978;28;20089;-71
2022/08/15 02:50:32;;;;;;;13.00;10.85;;;24.00;99.90;;;;;;4980166;28;20042;-71
2022/08/15 02:52:58;;;;;;;15.10;11.52;;;24.00;99.90;;;;;;4980229;28;20117;-71
2022/08/15 02:55:24;;;;;;;18.13;11.57;;;24.00;99.90;;;;;;4979829;28;20191;-72
2022/08/15 02:57:50;;;;;;;16.65;12.75;;;24.00;99.90;;;;;;4980125;28;20038;-71
2022/08/15 03:00:16;;;;;;;15.50;11.98;;;24.10;99.90;;;;;;4980034;28;20045;-71
2022/08/15 03:02:57;;;;;;;16.23;12.50;;;24.10;99.90;;;;;;4980147;28;20038;-71
2022/08/15 03:05:29;;;;;;;13.18;11.70;;;24.10;99.90;;;;;;4979244;28;20392;-71
2022/08/15 03:07:55;;;;;;;15.13;12.88;;;24.10;99.80;;;;;;4978942;28;20050;-72
2022/08/15 03:10:21;;;;;;;14.90;11.32;;;24.10;99.80;;;;;;4995054;28;20433;-71
2022/08/15 03:12:54;;;;;;;13.77;11.45;;;24.10;99.90;;;;;;4979759;28;20050;-71
2022/08/15 03:15:45;;;;;;;13.65;11.00;;;24.10;99.90;;;;;;4979802;28;20425;-71
2022/08/15 03:18:13;;;;;;;14.80;11.73;;;24.10;99.90;;;;;;4981235;28;20097;-72
2022/08/15 03:20:40;;;;;;;14.25;10.95;;;24.00;99.90;;;;;;4979812;28;20054;-71
2022/08/15 03:23:07;;;;;;;14.60;10.77;;;23.90;99.90;;;;;;4979676;28;20042;-71
2022/08/15 03:25:45;;;;;;;15.32;12.27;;;23.90;99.90;;;;;;4979389;28;20089;-71
2022/08/15 03:28:11;;;;;;;16.40;12.18;;;24.00;99.90;;;;;;4978555;28;20039;-71
2022/08/15 03:30:37;;;;;;;13.57;11.18;;;24.00;99.90;;;;;;4979439;28;20039;-71
2022/08/15 03:33:04;;;;;;;16.23;12.38;;;23.90;99.90;;;;;;4979352;28;20045;-71
2022/08/15 03:35:32;;;;;;;14.48;11.27;;;23.90;99.90;;;;;;4978159;28;20113;-71
2022/08/15 03:37:59;;;;;;;14.45;11.77;;;23.90;99.90;;;;;;4978165;28;20035;-71
2022/08/15 03:40:25;;;;;;;14.25;11.48;;;23.70;99.90;;;;;;4979393;28;20039;-71
2022/08/15 03:43:00;;;;;;;15.40;12.07;;;23.60;99.90;;;;;;4978124;28;20043;-71
2022/08/15 03:45:27;;;;;;;14.40;11.27;;;23.60;99.90;;;;;;4979281;28;20114;-72
2022/08/15 03:47:53;;;;;;;14.60;11.93;;;23.40;99.90;;;;;;4978992;28;20079;-71
2022/08/15 03:50:20;;;;;;;14.55;11.38;;;23.40;99.90;;;;;;4979329;28;20126;-71
2022/08/15 03:53:01;;;;;;;14.95;11.55;;;23.30;99.90;;;;;;4994105;28;20073;-71
2022/08/15 03:55:28;;;;;;;15.85;11.48;;;23.30;99.90;;;;;;4979020;28;20503;-71
2022/08/15 03:57:55;;;;;;;13.75;11.50;;;23.20;99.90;;;;;;4978740;28;20042;-71
2022/08/15 04:00:27;;;;;;;14.73;12.50;;;23.20;99.90;;;;;;4978150;28;20151;-71
2022/08/15 04:03:02;;;;;;;15.40;12.77;;;23.20;99.90;;;;;;4979176;28;20039;-71
2022/08/15 04:05:28;;;;;;;15.68;12.57;;;23.10;99.90;;;;;;4978751;28;20039;-71
2022/08/15 04:07:54;;;;;;;17.92;12.68;;;23.10;99.90;;;;;;4977726;28;20046;-71
2022/08/15 04:10:20;;;;;;;19.88;13.35;;;23.10;99.90;;;;;;4978659;28;20078;-71
2022/08/15 04:12:46;;;;;;;16.33;13.07;;;23.10;99.90;;;;;;4979068;28;20050;-71
2022/08/15 04:15:15;;;;;;;15.43;11.68;;;23.20;99.90;;;;;;4978668;28;20096;-71
2022/08/15 04:17:40;;;;;;;14.93;12.07;;;23.10;99.90;;;;;;4977405;28;20047;-71
2022/08/15 04:20:08;;;;;;;18.92;11.60;;;23.10;99.90;;;;;;4978399;28;20035;-71
2022/08/15 04:22:44;;;;;;;15.07;12.65;;;23.00;99.90;;;;;;4978472;28;20421;-71
2022/08/15 04:25:15;;;;;;;;;;;23.00;99.90;;;;;;4978799;28;20484;-71
2022/08/15 04:27:41;;;;;;;13.20;11.80;;;22.90;99.90;;;;;;4978520;28;19918;-71
2022/08/15 04:30:08;;;;;;;16.63;12.70;;;22.80;99.90;;;;;;4978400;28;20039;-71
2022/08/15 04:32:33;;;;;;;17.95;12.50;;;22.80;99.90;;;;;;4978337;28;20444;-71
2022/08/15 04:35:00;;;;;;;14.98;12.90;;;22.80;99.90;;;;;;4978425;28;20043;-71
2022/08/15 04:37:27;;;;;;;15.15;12.50;;;22.80;99.90;;;;;;4978057;28;20047;-72
2022/08/15 04:39:53;;;;;;;16.15;13.15;;;22.80;99.90;;;;;;4978388;28;20047;-71
2022/08/15 04:42:20;;;;;;;17.95;13.60;;;22.70;99.90;;;;;;4977094;28;20077;-71
2022/08/15 04:44:47;;;;;;;16.65;12.35;;;22.70;99.90;;;;;;4978260;28;20049;-71
2022/08/15 04:47:14;;;;;;;16.45;12.07;;;22.70;99.90;;;;;;4977708;28;20087;-71
2022/08/15 04:49:40;;;;;;;18.30;12.93;;;22.80;99.90;;;;;;4978062;28;20054;-71
2022/08/15 04:52:18;;;;;;;15.05;12.88;;;22.70;99.90;;;;;;4977072;28;20050;-71
2022/08/15 04:54:45;;;;;;;16.67;13.20;;;22.70;99.90;;;;;;4978130;28;20046;-72
2022/08/15 04:57:12;;;;;;;19.45;12.85;;;22.70;99.90;;;;;;4977836;28;20082;-71
2022/08/15 04:59:39;;;;;;;18.38;13.60;;;22.80;99.90;;;;;;4978229;28;20162;-71
2022/08/15 05:02:09;;;;;;;18.05;12.35;;;22.90;99.90;;;;;;4977845;28;20101;-71
2022/08/15 05:04:34;;;;;;;16.48;13.52;;;22.90;99.90;;;;;;4978063;28;20081;-71
2022/08/15 05:07:00;;;;;;;18.38;13.10;;;22.90;99.90;;;;;;4976854;28;20043;-71
2022/08/15 05:09:26;;;;;;;15.15;13.20;;;22.90;99.90;;;;;;4977837;28;20118;-71
2022/08/15 05:11:51;;;;;;;17.17;13.70;;;22.90;99.90;;;;;;4977687;28;20092;-71
2022/08/15 05:14:18;;;;;;;18.23;13.57;;;23.10;99.90;;;;;;4977766;28;20178;-71
2022/08/15 05:16:44;;;;;;;17.33;14.07;;;23.10;99.90;;;;;;4977511;28;20039;-71
2022/08/15 05:19:10;;;;;;;17.67;14.48;;;23.10;99.90;;;;;;4977577;28;20035;-72
2022/08/15 05:21:38;;;;;;;17.40;14.27;;;23.20;99.90;;;;;;4993103;28;20146;-71
2022/08/15 05:24:04;;;;;;;19.83;14.30;;;23.20;99.90;;;;;;4977737;28;20177;-71
2022/08/15 05:26:30;;;;;;;20.33;14.23;;;23.30;99.90;;;;;;4977526;28;20062;-71
2022/08/15 05:28:56;;;;;;;15.07;13.43;;;23.30;99.90;;;;;;4977194;28;20042;-71
2022/08/15 05:31:22;;;;;;;18.52;13.73;;;23.30;99.90;;;;;;4992885;28;20051;-71
2022/08/15 05:33:48;;;;;;;15.60;13.25;;;23.30;99.90;;;;;;4977535;28;20038;-71
2022/08/15 05:36:15;;;;;;;19.52;12.98;;;23.30;99.90;;;;;;4977263;28;20039;-71
2022/08/15 05:38:58;;;;;;;18.85;12.93;;;23.30;99.90;;;;;;4977478;28;20051;-71
2022/08/15 05:41:32;;;;;;;15.88;13.45;;;23.30;99.90;;;;;;4977575;28;20034;-71
2022/08/15 05:44:06;;;;;;;13.93;12.43;;;23.40;99.90;;;;;;4977451;28;20384;-71
2022/08/15 05:46:39;;;;;;;15.20;13.45;;;23.40;99.90;;;;;;4977539;28;20042;-71
2022/08/15 05:49:08;;;;;;;17.92;14.10;;;23.50;99.90;;;;;;4977205;28;20050;-71
2022/08/15 05:52:08;;;;;;;16.60;13.35;;;23.60;99.90;;;;;;4977378;28;20381;-71
2022/08/15 05:54:56;;;;;;;14.55;12.98;;;23.80;99.90;;;;;;4992796;28;20392;-71
2022/08/15 05:57:45;;;;;;;17.05;13.15;;;23.80;99.90;;;;;;4977541;28;20042;-71
2022/08/15 06:00:15;;;;;;;16.02;13.60;;;23.90;99.90;;;;;;4976508;28;20125;-71
2022/08/15 06:02:49;;;;;;;14.65;13.15;;;24.00;99.90;;;;;;4977563;28;20043;-71
2022/08/15 06:05:29;;;;;;;16.17;12.70;;;24.10;99.90;;;;;;4977117;28;20429;-72
2022/08/15 06:07:57;;;;;;;19.65;13.85;;;24.20;99.90;;;;;;4976151;28;20433;-71
2022/08/15 06:10:27;;;;;;;20.38;14.60;;;24.30;99.90;;;;;;4992702;28;20101;-71
2022/08/15 06:13:24;;;;;;;15.20;13.27;;;24.40;99.90;;;;;;4977233;28;20035;-71
2022/08/15 06:15:58;;;;;;;18.50;14.60;;;24.40;99.90;;;;;;4983151;28;20059;-69
2022/08/15 06:18:27;;;;;;;18.30;12.98;;;24.40;99.90;;;;;;4975706;28;20093;-77
2022/08/15 06:21:06;;;;;;;19.45;15.25;;;24.40;99.90;;;;;;4976215;28;20326;-69
2022/08/15 06:23:48;;;;;;;16.55;14.75;;;24.50;99.90;;;;;;4976513;28;20352;-68
2022/08/15 06:26:41;;;;;;;21.95;15.45;;;24.40;99.90;;;;;;4976942;28;20054;-69
2022/08/15 06:29:09;;;;;;;20.83;15.52;;;24.40;99.90;;;;;;4977177;28;20061;-69
2022/08/15 06:31:44;;;;;;;20.63;16.33;;;24.40;99.90;;;;;;4976807;28;20434;-69
2022/08/15 06:34:20;;;;;;;18.63;16.48;;;24.40;99.90;;;;;;4977057;28;20039;-69
2022/08/15 06:36:59;;;;;;;24.73;16.42;;;24.50;99.90;;;;;;4976794;28;20053;-69
2022/08/15 06:40:07;;;;;;;19.88;17.58;;;24.50;99.90;;;;;;4977459;28;20093;-69
2022/08/15 06:42:39;;;;;;;19.95;16.02;;;24.60;99.90;;;;;;4980583;28;20073;-69
2022/08/15 06:45:22;;;;;;;18.88;16.88;;;24.60;99.90;;;;;;4980163;28;20050;-69
2022/08/15 06:47:50;;;;;;;19.60;16.27;;;24.80;99.90;;;;;;4979761;28;20429;-69
2022/08/15 06:50:24;;;;;;;18.77;15.77;;;24.80;99.90;;;;;;4979193;28;20353;-68
2022/08/15 06:52:54;;;;;;;21.45;16.25;;;24.90;99.90;;;;;;4976776;28;20041;-69
2022/08/15 06:55:22;;;;;;;19.75;15.73;;;25.00;99.90;;;;;;4976332;28;20042;-69
2022/08/15 06:57:59;;;;;;;22.70;17.83;;;25.00;99.90;;;;;;4976772;28;20038;-70
2022/08/15 07:00:35;;;;;;;21.77;17.40;;;25.10;99.80;;;;;;4976819;28;20101;-69
2022/08/15 07:03:04;;;;;;;21.23;16.65;;;25.00;99.80;;;;;;4959029;28;20094;-69
2022/08/15 07:05:44;;;;;;;20.27;16.85;;;25.00;99.90;;;;;;4960474;28;20337;-69
2022/08/15 07:08:32;;;;;;;21.90;16.33;;;25.20;99.90;;;;;;4960679;28;20434;-69
2022/08/15 07:11:06;;;;;;;19.00;16.98;;;25.30;99.90;;;;;;4960483;28;20042;-69
2022/08/15 07:13:59;;;;;;;20.42;17.33;;;25.20;99.60;;;;;;4960673;28;20078;-68
2022/08/15 07:16:41;;;;;;;18.90;15.40;;;25.20;99.50;;;;;;4977380;28;20055;-69
2022/08/15 07:19:08;;;;;;;17.55;14.23;;;25.20;99.70;;;;;;4960049;28;20039;-69
2022/08/15 07:21:34;;;;;;;20.73;15.00;;;25.30;99.60;;;;;;4960681;28;20070;-71
2022/08/15 07:24:16;;;;;;;15.20;11.82;;;25.30;99.40;;;;;;4960284;28;20066;-71
2022/08/15 07:26:47;;;;;;;12.32;11.02;;;25.30;99.40;;;;;;4960120;28;20055;-75
2022/08/15 07:29:36;;;;;;;13.98;12.18;;;25.20;99.30;;;;;;4961571;28;20035;-70
2022/08/15 07:32:25;;;;;;;14.43;12.48;;;25.40;99.50;;;;;;4960220;28;20046;-70
2022/08/15 07:34:59;;;;;;;15.80;14.00;;;25.50;99.60;;;;;;4960273;28;20500;-71
2022/08/15 07:37:32;;;;;;;16.20;13.43;;;25.50;99.40;;;;;;4960005;28;20063;-71
2022/08/15 07:40:02;;;;;;;14.23;12.23;;;25.40;99.40;;;;;;4960196;28;20043;-70
2022/08/15 07:42:35;;;;;;;15.40;12.95;;;25.20;99.60;;;;;;4960032;28;20075;-70
2022/08/15 07:45:07;;;;;;;18.88;14.80;;;25.40;99.60;;;;;;4960077;28;20493;-70
2022/08/15 07:47:34;;;;;;;19.50;14.27;;;25.40;99.50;;;;;;4959493;28;20079;-69
2022/08/15 07:50:05;;;;;;;14.90;13.15;;;25.30;99.50;;;;;;4959889;28;20126;-69
2022/08/15 07:52:31;;;;;;;14.20;11.60;;;25.20;99.90;;;;;;4960030;28;20050;-69
2022/08/15 07:55:19;;;;;;;14.73;13.13;;;25.40;99.90;;;;;;4959708;28;20054;-69
2022/08/15 07:58:02;;;;;;;16.27;12.82;;;25.50;99.60;;;;;;4959572;28;20496;-69
2022/08/15 08:00:29;;;;;;;18.10;13.48;;;25.60;99.60;;;;;;4959957;28;20053;-69
2022/08/15 08:03:11;;;;;;;16.23;12.15;;;25.60;99.50;;;;;;4959505;28;20476;-69
2022/08/15 08:06:19;;;;;;;15.93;12.57;;;25.60;99.60;;;;;;4959793;28;20031;-69
2022/08/15 08:08:47;;;;;;;13.98;10.98;;;25.80;99.40;;;;;;4996243;28;20046;-69
2022/08/15 08:11:38;;;;;;;15.05;10.77;;;26.10;99.40;;;;;;4966319;28;20047;-69
2022/08/15 08:14:10;;;;;;;13.07;9.63;;;26.30;99.50;;;;;;4965400;28;20058;-69
2022/08/15 08:16:44;;;;;;;12.18;9.13;;;26.60;99.30;;;;;;4959222;28;20130;-69
2022/08/15 08:19:36;;;;;;;12.32;8.73;;;26.90;99.50;;;;;;4959063;28;20307;-69
2022/08/15 08:22:07;;;;;;;10.43;8.15;;;26.80;98.30;;;;;;4967115;28;20046;-68
2022/08/15 08:24:57;;;;;;;9.27;8.10;;;26.90;98.80;;;;;;4959164;28;20035;-68
2022/08/15 08:27:44;;;;;;;10.43;7.68;;;27.10;98.40;;;;;;4960765;28;20078;-69
2022/08/15 08:30:50;;;;;;;8.80;7.50;;;27.10;98.10;;;;;;4959162;28;20433;-69
2022/08/15 08:33:35;;;;;;;11.10;7.63;;;27.10;98.00;;;;;;4958890;28;20079;-70
2022/08/15 08:36:20;;;;;;;9.88;7.25;;;27.30;98.40;;;;;;4958991;28;20474;-68
2022/08/15 08:39:10;;;;;;;10.60;6.80;;;27.20;97.80;;;;;;4959041;28;20057;-69
2022/08/15 08:41:53;;;;;;;10.52;7.28;;;27.10;97.90;;;;;;4974152;28;20366;-69
2022/08/15 08:44:44;;;;;;;10.25;7.25;;;27.00;97.60;;;;;;4958786;28;20448;-69
2022/08/15 08:47:19;;;;;;;9.30;7.20;;;26.90;97.70;;;;;;4958480;28;20075;-69
2022/08/15 08:49:56;;;;;;;10.57;7.15;;;27.00;97.70;;;;;;4958990;28;20413;-70
2022/08/15 08:52:45;;;;;;;7.93;6.82;;;27.00;97.80;;;;;;4958792;28;20043;-70
2022/08/15 08:55:22;;;;;;;8.60;7.15;;;26.90;98.00;;;;;;4958768;28;20051;-70
2022/08/15 08:58:01;;;;;;;8.32;7.50;;;27.00;97.80;;;;;;4958686;28;20047;-69
2022/08/15 09:00:37;;;;;;;8.60;6.90;;;27.10;97.80;;;;;;4958454;28;20036;-70
2022/08/15 09:03:27;;;;;;;8.30;7.25;;;27.00;97.70;;;;;;4958415;28;20398;-69
2022/08/15 09:05:58;;;;;;;9.15;7.03;;;27.10;98.00;;;;;;4958553;28;20046;-69
2022/08/15 09:08:40;;;;;;;7.53;6.65;;;27.50;97.90;;;;;;4958657;28;20043;-69
2022/08/15 09:11:08;;;;;;;8.07;6.72;;;27.80;98.00;;;;;;4958705;28;20054;-68
2022/08/15 09:13:41;;;;;;;7.53;6.45;;;27.60;97.50;;;;;;4958510;28;20043;-67
2022/08/15 09:16:12;;;;;;;11.75;6.53;;;27.70;97.40;;;;;;4957463;28;20047;-68
2022/08/15 09:19:04;;;;;;;10.02;6.45;;;27.90;97.40;;;;;;4957925;28;20039;-68
2022/08/15 09:21:31;;;;;;;9.85;6.90;;;28.20;97.90;;;;;;4964773;28;20051;-68
2022/08/15 09:23:59;;;;;;;9.32;6.68;;;28.30;97.70;;;;;;4958277;28;20541;-72
2022/08/15 09:26:49;;;;;;;10.95;6.95;;;28.40;97.60;;;;;;4957948;28;20074;-71
2022/08/15 09:29:18;;;;;;;8.30;6.35;;;28.10;97.60;;;;;;4973609;28;20055;-71
2022/08/15 09:32:10;;;;;;;7.18;6.47;;;27.90;97.50;;;;;;4957333;29;20055;-71
2022/08/15 09:34:35;;;;;;;8.85;6.22;;;28.00;97.60;;;;;;4959361;28;20062;-72
2022/08/15 09:37:19;;;;;;;8.80;6.40;;;28.10;97.60;;;;;;4977168;28;20039;-69
2022/08/15 09:40:21;;;;;;;6.78;6.03;;;28.10;97.40;;;;;;4976132;28;20066;-69
2022/08/15 09:43:13;;;;;;;7.78;5.90;;;28.30;97.30;;;;;;4987722;28;20437;-70
2022/08/15 09:46:09;;;;;;;8.10;6.30;;;28.50;97.20;;;;;;4967961;28;20102;-70
2022/08/15 09:48:44;;;;;;;7.40;6.13;;;28.60;97.10;;;;;;4972549;28;20058;-70
2022/08/15 09:51:19;;;;;;;9.40;6.35;;;29.00;97.20;;;;;;4957997;28;20047;-83
2022/08/15 09:54:23;;;;;;;7.00;6.10;;;29.30;97.10;;;;;;4982840;28;20049;-84
2022/08/15 09:56:52;;;;;;;9.93;6.43;;;29.10;96.90;;;;;;4977079;28;20047;-70
2022/08/15 09:59:19;;;;;;;11.07;6.00;;;29.30;97.20;;;;;;4977281;28;20034;-84
2022/08/15 10:01:51;;;;;;;7.78;6.07;;;29.40;97.10;;;;;;4985305;28;20129;-85
2022/08/15 10:04:23;;;;;;;9.13;6.47;;;29.30;96.70;;;;;;4973160;28;20043;-86
2022/08/15 10:07:01;;;;;;;6.75;5.95;;;29.10;96.50;;;;;;4974961;28;20104;-83
2022/08/15 10:09:36;;;;;;;11.13;6.95;;;29.40;97.00;;;;;;4977912;28;20118;-68
2022/08/15 10:12:09;;;;;;;7.50;5.88;;;29.60;96.50;;;;;;4974881;28;20101;-69
2022/08/15 10:14:47;;;;;;;7.70;6.75;;;29.90;96.80;;;;;;4988540;28;20051;-70
2022/08/15 10:17:27;;;;;;;7.13;6.43;;;30.50;96.80;;;;;;4975432;28;20046;-70
2022/08/15 10:19:54;;;;;;;6.97;5.78;;;30.80;96.80;;;;;;4979111;28;20148;-71
2022/08/15 10:22:24;;;;;;;7.22;6.53;;;31.00;97.10;;;;;;4980278;28;20302;-70
2022/08/15 10:25:24;;;;;;;8.82;7.00;;;31.10;96.60;;;;;;4980952;28;20050;-70
2022/08/15 10:28:05;;;;;;;8.30;6.95;;;30.90;96.30;;;;;;4980665;28;20161;-71
2022/08/15 10:30:52;;;;;;;9.15;6.97;;;30.70;96.40;;;;;;4980747;28;20105;-70
2022/08/15 10:33:33;;;;;;;10.27;6.78;;;30.50;96.50;;;;;;4981506;28;20051;-70
2022/08/15 10:36:14;;;;;;;9.82;7.38;;;30.70;96.50;;;;;;4980858;28;20450;-70
2022/08/15 10:38:50;;;;;;;10.52;7.25;;;30.60;96.50;;;;;;4996048;28;20035;-69
2022/08/15 10:41:27;;;;;;;15.23;7.68;;;30.60;96.60;;;;;;4980517;28;20038;-69
2022/08/15 10:44:21;;;;;;;9.15;7.20;;;30.60;96.60;;;;;;4980255;28;20423;-69
2022/08/15 10:47:05;;;;;;;10.80;7.15;;;30.60;96.50;;;;;;4980356;28;20042;-69
2022/08/15 10:49:56;;;;;;;11.10;7.47;;;30.40;96.40;;;;;;4979792;28;20445;-68
2022/08/15 10:52:43;;;;;;;9.60;6.57;;;30.30;96.10;;;;;;4980382;28;20377;-68
2022/08/15 10:55:12;;;;;;;11.50;7.20;;;30.30;96.50;;;;;;4980334;28;20049;-68
2022/08/15 10:57:48;;;;;;;10.50;7.53;;;30.60;96.50;;;;;;4979975;28;20043;-68
2022/08/15 11:00:51;;;;;;;9.18;8.18;;;30.60;96.40;;;;;;4996086;28;20041;-68
2022/08/15 11:03:38;;;;;;;10.20;7.32;;;30.70;96.20;;;;;;4981708;28;20353;-71
2022/08/15 11:06:13;;;;;;;12.60;7.90;;;31.00;96.50;;;;;;4980137;28;20039;-70
2022/08/15 11:08:47;;;;;;;12.25;8.80;;;31.00;96.30;;;;;;4980137;28;20445;-69
2022/08/15 11:11:14;;;;;;;10.70;8.02;;;30.70;96.20;;;;;;4979028;28;20380;-69
2022/08/15 11:13:42;;;;;;;11.02;9.77;;;30.70;96.40;;;;;;4980063;28;20136;-69
2022/08/15 11:16:14;;;;;;;27.05;11.63;;;30.60;96.70;;;;;;4979868;28;20046;-69
2022/08/15 11:18:55;;;;;;;16.30;11.75;;;30.40;96.90;;;;;;4979510;28;20428;-69
2022/08/15 11:21:48;;;;;;;13.27;11.10;;;30.20;96.80;;;;;;4979924;28;20177;-69
2022/08/15 11:24:23;;;;;;;13.93;11.77;;;30.00;97.10;;;;;;4979629;28;20046;-69
2022/08/15 11:26:49;;;;;;;16.40;11.10;;;29.90;96.90;;;;;;4993909;28;20367;-69
2022/08/15 11:29:19;;;;;;;15.35;10.75;;;29.80;97.10;;;;;;4979800;28;20057;-80
2022/08/15 11:31:56;;;;;;;11.93;10.15;;;29.70;97.00;;;;;;4994641;28;20047;-80
2022/08/15 11:34:36;;;;;;;14.10;10.35;;;29.40;97.20;;;;;;4978458;28;20077;-80
2022/08/15 11:37:12;;;;;;;13.90;10.73;;;29.10;97.30;;;;;;4978401;28;20477;-80
2022/08/15 11:39:58;;;;;;;15.23;11.15;;;28.80;97.40;;;;;;4979641;28;20106;-81
2022/08/15 11:42:27;;;;;;;19.95;11.57;;;28.60;97.60;;;;;;4994571;28;20050;-80
2022/08/15 11:45:03;;;;;;;20.38;12.10;;;28.50;98.00;;;;;;4994638;28;20345;-78
2022/08/15 11:47:33;;;;;;;14.65;11.38;;;28.30;98.30;;;;;;4994021;28;20085;-82
2022/08/15 11:50:05;;;;;;;16.23;10.68;;;28.00;98.40;;;;;;4994246;28;20034;-81
2022/08/15 11:52:46;;;;;;;17.23;10.50;;;28.10;98.90;;;;;;4994398;28;20050;-80
2022/08/15 11:55:20;;;;;;;14.48;11.57;;;27.60;99.40;;;;;;4979077;28;20031;-79
2022/08/15 11:57:49;;;;;;;18.33;11.30;;;26.90;99.40;;;;;;4977848;28;20045;-79
2022/08/15 12:00:43;;;;;;;17.25;10.98;;;27.30;99.60;;;;;;4979292;28;20042;-80
2022/08/15 12:03:27;;;;;;;15.90;12.65;;;27.60;99.80;;;;;;4977781;28;20342;-81
2022/08/15 12:06:30;;;;;;;16.60;11.55;;;27.50;99.80;;;;;;4977989;28;20382;-81
2022/08/15 12:09:10;;;;;;;17.75;11.23;;;27.50;99.90;;;;;;4978148;28;20046;-81
2022/08/15 12:11:42;;;;;;;14.55;11.27;;;27.30;99.90;;;;;;4978799;28;20077;-80
2022/08/15 12:14:19;;;;;;;16.85;11.63;;;26.50;99.90;;;;;;4994102;28;20426;-80
2022/08/15 12:17:05;;;;;;;16.70;12.73;;;26.40;99.90;;;;;;4993702;28;20058;-81
2022/08/15 12:19:37;;;;;;;15.20;11.95;;;26.40;99.90;;;;;;4977088;28;20054;-81
2022/08/15 12:22:27;;;;;;;14.77;12.65;;;26.80;99.90;;;;;;4978216;28;20051;-81
2022/08/15 12:24:53;;;;;;;14.95;12.38;;;26.50;99.90;;;;;;4993467;28;20433;-81
2022/08/15 12:27:20;;;;;;;13.00;11.45;;;26.50;99.90;;;;;;4978370;28;20089;-81
2022/08/15 12:29:46;;;;;;;16.25;12.02;;;26.60;99.90;;;;;;4977543;28;20062;-81
2022/08/15 12:32:12;;;;;;;15.07;11.77;;;26.60;99.90;;;;;;4993671;28;20166;-81
2022/08/15 12:34:47;;;;;;;12.48;11.13;;;26.50;99.90;;;;;;4993475;28;20444;-81
2022/08/15 12:37:24;;;;;;;12.10;10.88;;;26.70;99.90;;;;;;4976723;28;20079;-81
2022/08/15 12:39:56;;;;;;;13.25;10.48;;;27.20;99.90;;;;;;4993501;28;20045;-81
2022/08/15 12:42:24;;;;;;;11.07;9.35;;;27.30;99.90;;;;;;4993596;28;20046;-81
2022/08/15 12:44:53;;;;;;;14.35;10.13;;;27.50;99.90;;;;;;4977157;28;20039;-81
2022/08/15 12:47:20;;;;;;;16.17;10.52;;;27.80;99.90;;;;;;4992696;28;20396;-80
2022/08/15 12:49:46;;;;;;;15.45;9.63;;;28.00;99.90;;;;;;4977082;28;20051;-81
2022/08/15 12:52:12;;;;;;;13.32;10.68;;;28.10;99.90;;;;;;4978245;28;20081;-81
2022/08/15 12:54:38;;;;;;;10.85;9.55;;;28.10;99.90;;;;;;4977855;28;20078;-79
2022/08/15 12:57:05;;;;;;;12.27;8.32;;;28.00;99.90;;;;;;4977934;28;20058;-80
2022/08/15 12:59:31;;;;;;;9.90;8.52;;;27.60;99.90;;;;;;4977122;28;20325;-82
2022/08/15 13:01:57;;;;;;;11.35;8.73;;;27.60;99.70;;;;;;4993108;28;20065;-80
2022/08/15 13:04:24;;;;;;;10.13;8.40;;;27.60;99.60;;;;;;4977485;28;20043;-80
2022/08/15 13:06:53;;;;;;;13.68;8.40;;;27.10;99.90;;;;;;4977603;28;20126;-81
2022/08/15 13:09:21;;;;;;;12.77;8.85;;;27.30;99.90;;;;;;4976772;28;20078;-82